sensor_id;sensor_type;location;lat;lon;timestamp;P1;durP1;ratioP1;P2;durP2;ratioP2
20181;SDS011;10250;50.756;6.172;2023-06-22T00:00:08;14.23;;;5.10;;
20181;SDS011;10250;50.756;6.172;2023-06-22T00:02:11;13.10;;;5.00;;
20181;SDS011;10250;50.756;6.172;2023-06-22T00:04:12;13.87;;;4.83;;
20181;SDS011;10250;50.756;6.172;2023-06-22T00:06:25;15.20;;;5.37;;
20181;SDS011;10250;50.756;6.172;2023-06-22T00:08:26;17.07;;;5.63;;
20181;SDS011;10250;50.756;6.172;2023-06-22T00:10:26;15.33;;;5.67;;
20181;SDS011;10250;50.756;6.172;2023-06-22T00:12:27;15.83;;;5.77;;
20181;SDS011;10250;50.756;6.172;2023-06-22T00:14:27;13.60;;;5.27;;
20181;SDS011;10250;50.756;6.172;2023-06-22T00:16:28;15.70;;;6.07;;
20181;SDS011;10250;50.756;6.172;2023-06-22T00:18:29;17.33;;;6.00;;
20181;SDS011;10250;50.756;6.172;2023-06-22T00:20:30;15.53;;;6.17;;
20181;SDS011;10250;50.756;6.172;2023-06-22T00:22:32;15.23;;;5.77;;
20181;SDS011;10250;50.756;6.172;2023-06-22T00:24:38;15.03;;;6.20;;
20181;SDS011;10250;50.756;6.172;2023-06-22T00:26:39;16.10;;;6.10;;
20181;SDS011;10250;50.756;6.172;2023-06-22T00:28:39;14.83;;;5.90;;
20181;SDS011;10250;50.756;6.172;2023-06-22T00:30:40;16.47;;;5.50;;
20181;SDS011;10250;50.756;6.172;2023-06-22T00:32:41;17.03;;;6.87;;
20181;SDS011;10250;50.756;6.172;2023-06-22T00:34:41;16.13;;;6.17;;
20181;SDS011;10250;50.756;6.172;2023-06-22T00:36:42;15.37;;;6.60;;
20181;SDS011;10250;50.756;6.172;2023-06-22T00:38:42;16.37;;;6.80;;
20181;SDS011;10250;50.756;6.172;2023-06-22T00:40:43;16.23;;;6.60;;
20181;SDS011;10250;50.756;6.172;2023-06-22T00:42:44;17.70;;;6.83;;
20181;SDS011;10250;50.756;6.172;2023-06-22T00:44:44;15.47;;;6.43;;
20181;SDS011;10250;50.756;6.172;2023-06-22T00:46:45;16.57;;;6.53;;
20181;SDS011;10250;50.756;6.172;2023-06-22T00:48:45;16.20;;;6.53;;
20181;SDS011;10250;50.756;6.172;2023-06-22T00:50:46;18.10;;;7.37;;
20181;SDS011;10250;50.756;6.172;2023-06-22T00:52:55;15.90;;;6.37;;
20181;SDS011;10250;50.756;6.172;2023-06-22T00:54:58;15.47;;;6.40;;
20181;SDS011;10250;50.756;6.172;2023-06-22T00:57:01;16.00;;;6.37;;
20181;SDS011;10250;50.756;6.172;2023-06-22T00:59:03;16.30;;;6.57;;
20181;SDS011;10250;50.756;6.172;2023-06-22T01:01:04;14.70;;;5.97;;
20181;SDS011;10250;50.756;6.172;2023-06-22T01:03:04;15.37;;;6.07;;
20181;SDS011;10250;50.756;6.172;2023-06-22T01:05:08;14.73;;;5.70;;
20181;SDS011;10250;50.756;6.172;2023-06-22T01:09:15;15.53;;;5.00;;
20181;SDS011;10250;50.756;6.172;2023-06-22T01:11:25;13.53;;;4.93;;
20181;SDS011;10250;50.756;6.172;2023-06-22T01:16:05;19.53;;;5.47;;
20181;SDS011;10250;50.756;6.172;2023-06-22T01:18:11;15.47;;;6.20;;
20181;SDS011;10250;50.756;6.172;2023-06-22T01:20:14;14.93;;;6.00;;
20181;SDS011;10250;50.756;6.172;2023-06-22T01:22:16;17.07;;;5.90;;
20181;SDS011;10250;50.756;6.172;2023-06-22T01:24:28;16.70;;;6.57;;
20181;SDS011;10250;50.756;6.172;2023-06-22T01:26:41;16.80;;;6.50;;
20181;SDS011;10250;50.756;6.172;2023-06-22T01:28:51;14.90;;;5.43;;
20181;SDS011;10250;50.756;6.172;2023-06-22T01:30:54;14.63;;;5.37;;
20181;SDS011;10250;50.756;6.172;2023-06-22T01:33:03;15.60;;;5.60;;
20181;SDS011;10250;50.756;6.172;2023-06-22T01:35:06;15.90;;;5.90;;
20181;SDS011;10250;50.756;6.172;2023-06-22T01:37:08;15.83;;;5.53;;
20181;SDS011;10250;50.756;6.172;2023-06-22T01:39:09;15.23;;;5.27;;
20181;SDS011;10250;50.756;6.172;2023-06-22T01:41:11;15.80;;;5.60;;
20181;SDS011;10250;50.756;6.172;2023-06-22T01:43:12;14.67;;;4.90;;
20181;SDS011;10250;50.756;6.172;2023-06-22T01:45:13;13.43;;;4.70;;
20181;SDS011;10250;50.756;6.172;2023-06-22T01:47:14;14.60;;;5.47;;
20181;SDS011;10250;50.756;6.172;2023-06-22T01:49:16;14.10;;;5.00;;
20181;SDS011;10250;50.756;6.172;2023-06-22T01:51:16;15.67;;;5.33;;
20181;SDS011;10250;50.756;6.172;2023-06-22T01:53:17;15.43;;;5.20;;
20181;SDS011;10250;50.756;6.172;2023-06-22T01:55:18;13.60;;;5.00;;
20181;SDS011;10250;50.756;6.172;2023-06-22T01:57:18;14.30;;;5.30;;
20181;SDS011;10250;50.756;6.172;2023-06-22T02:01:41;16.03;;;6.30;;
20181;SDS011;10250;50.756;6.172;2023-06-22T02:04:04;15.57;;;6.00;;
20181;SDS011;10250;50.756;6.172;2023-06-22T02:06:33;14.73;;;5.50;;
20181;SDS011;10250;50.756;6.172;2023-06-22T02:08:41;16.70;;;5.63;;
20181;SDS011;10250;50.756;6.172;2023-06-22T02:10:48;16.77;;;5.70;;
20181;SDS011;10250;50.756;6.172;2023-06-22T02:12:50;17.23;;;6.93;;
20181;SDS011;10250;50.756;6.172;2023-06-22T02:14:52;15.20;;;6.20;;
20181;SDS011;10250;50.756;6.172;2023-06-22T02:16:53;17.17;;;6.23;;
20181;SDS011;10250;50.756;6.172;2023-06-22T02:18:54;14.73;;;6.03;;
20181;SDS011;10250;50.756;6.172;2023-06-22T02:20:56;16.13;;;6.60;;
20181;SDS011;10250;50.756;6.172;2023-06-22T02:22:57;15.70;;;6.50;;
20181;SDS011;10250;50.756;6.172;2023-06-22T02:24:58;16.40;;;6.67;;
20181;SDS011;10250;50.756;6.172;2023-06-22T02:26:59;18.70;;;6.63;;
20181;SDS011;10250;50.756;6.172;2023-06-22T02:29:00;15.00;;;6.13;;
20181;SDS011;10250;50.756;6.172;2023-06-22T02:31:01;16.87;;;6.17;;
20181;SDS011;10250;50.756;6.172;2023-06-22T02:33:02;17.00;;;6.27;;
20181;SDS011;10250;50.756;6.172;2023-06-22T02:35:02;16.43;;;6.13;;
20181;SDS011;10250;50.756;6.172;2023-06-22T02:37:06;18.47;;;6.77;;
20181;SDS011;10250;50.756;6.172;2023-06-22T02:39:07;15.47;;;5.43;;
20181;SDS011;10250;50.756;6.172;2023-06-22T02:41:07;15.13;;;5.97;;
20181;SDS011;10250;50.756;6.172;2023-06-22T02:43:08;15.77;;;5.80;;
20181;SDS011;10250;50.756;6.172;2023-06-22T02:45:08;15.07;;;5.37;;
20181;SDS011;10250;50.756;6.172;2023-06-22T02:47:09;14.80;;;5.57;;
20181;SDS011;10250;50.756;6.172;2023-06-22T02:49:10;13.90;;;5.47;;
20181;SDS011;10250;50.756;6.172;2023-06-22T02:51:11;13.90;;;5.40;;
20181;SDS011;10250;50.756;6.172;2023-06-22T02:53:12;16.70;;;6.43;;
20181;SDS011;10250;50.756;6.172;2023-06-22T02:55:12;16.27;;;5.93;;
20181;SDS011;10250;50.756;6.172;2023-06-22T02:57:13;15.83;;;5.97;;
20181;SDS011;10250;50.756;6.172;2023-06-22T02:59:13;15.80;;;6.13;;
20181;SDS011;10250;50.756;6.172;2023-06-22T03:01:14;16.83;;;6.47;;
20181;SDS011;10250;50.756;6.172;2023-06-22T03:03:15;16.37;;;6.23;;
20181;SDS011;10250;50.756;6.172;2023-06-22T03:05:15;16.97;;;6.00;;
20181;SDS011;10250;50.756;6.172;2023-06-22T03:07:17;15.80;;;6.10;;
20181;SDS011;10250;50.756;6.172;2023-06-22T03:09:18;18.60;;;6.70;;
20181;SDS011;10250;50.756;6.172;2023-06-22T03:11:19;19.40;;;6.40;;
20181;SDS011;10250;50.756;6.172;2023-06-22T03:13:19;18.43;;;6.53;;
20181;SDS011;10250;50.756;6.172;2023-06-22T03:15:20;17.60;;;6.50;;
20181;SDS011;10250;50.756;6.172;2023-06-22T03:17:20;15.77;;;6.00;;
20181;SDS011;10250;50.756;6.172;2023-06-22T03:19:21;14.13;;;5.47;;
20181;SDS011;10250;50.756;6.172;2023-06-22T03:21:22;18.53;;;6.63;;
20181;SDS011;10250;50.756;6.172;2023-06-22T03:23:23;19.07;;;6.23;;
20181;SDS011;10250;50.756;6.172;2023-06-22T03:25:23;17.83;;;6.33;;
20181;SDS011;10250;50.756;6.172;2023-06-22T03:27:24;17.10;;;6.40;;
20181;SDS011;10250;50.756;6.172;2023-06-22T03:29:25;18.17;;;6.70;;
20181;SDS011;10250;50.756;6.172;2023-06-22T03:31:25;18.17;;;7.00;;
20181;SDS011;10250;50.756;6.172;2023-06-22T03:33:26;16.73;;;6.73;;
20181;SDS011;10250;50.756;6.172;2023-06-22T03:35:27;16.47;;;6.90;;
20181;SDS011;10250;50.756;6.172;2023-06-22T03:37:28;18.03;;;6.77;;
20181;SDS011;10250;50.756;6.172;2023-06-22T03:39:29;18.00;;;6.70;;
20181;SDS011;10250;50.756;6.172;2023-06-22T03:41:30;16.83;;;6.43;;
20181;SDS011;10250;50.756;6.172;2023-06-22T03:43:30;16.83;;;6.87;;
20181;SDS011;10250;50.756;6.172;2023-06-22T03:45:31;17.43;;;6.50;;
20181;SDS011;10250;50.756;6.172;2023-06-22T03:47:32;17.07;;;6.17;;
20181;SDS011;10250;50.756;6.172;2023-06-22T03:49:33;18.37;;;6.40;;
20181;SDS011;10250;50.756;6.172;2023-06-22T03:51:34;16.40;;;6.63;;
20181;SDS011;10250;50.756;6.172;2023-06-22T03:53:35;18.50;;;6.73;;
20181;SDS011;10250;50.756;6.172;2023-06-22T03:55:35;17.60;;;6.53;;
20181;SDS011;10250;50.756;6.172;2023-06-22T03:57:36;17.30;;;7.20;;
20181;SDS011;10250;50.756;6.172;2023-06-22T03:59:37;17.87;;;6.23;;
20181;SDS011;10250;50.756;6.172;2023-06-22T04:01:37;16.10;;;6.20;;
20181;SDS011;10250;50.756;6.172;2023-06-22T04:03:38;17.00;;;6.57;;
20181;SDS011;10250;50.756;6.172;2023-06-22T04:05:41;16.10;;;6.73;;
20181;SDS011;10250;50.756;6.172;2023-06-22T04:07:41;15.90;;;6.30;;
20181;SDS011;10250;50.756;6.172;2023-06-22T04:09:42;18.27;;;7.27;;
20181;SDS011;10250;50.756;6.172;2023-06-22T04:11:42;16.03;;;6.33;;
20181;SDS011;10250;50.756;6.172;2023-06-22T04:13:43;18.80;;;6.60;;
20181;SDS011;10250;50.756;6.172;2023-06-22T04:15:44;16.73;;;6.40;;
20181;SDS011;10250;50.756;6.172;2023-06-22T04:17:45;15.97;;;6.10;;
20181;SDS011;10250;50.756;6.172;2023-06-22T04:19:45;16.30;;;5.57;;
20181;SDS011;10250;50.756;6.172;2023-06-22T04:21:46;13.73;;;5.57;;
20181;SDS011;10250;50.756;6.172;2023-06-22T04:23:48;15.63;;;5.77;;
20181;SDS011;10250;50.756;6.172;2023-06-22T04:25:49;16.40;;;6.43;;
20181;SDS011;10250;50.756;6.172;2023-06-22T04:27:50;16.93;;;6.33;;
20181;SDS011;10250;50.756;6.172;2023-06-22T04:29:51;16.90;;;6.87;;
20181;SDS011;10250;50.756;6.172;2023-06-22T04:31:58;17.43;;;6.37;;
20181;SDS011;10250;50.756;6.172;2023-06-22T04:34:03;17.83;;;6.63;;
20181;SDS011;10250;50.756;6.172;2023-06-22T04:36:07;16.30;;;6.37;;
20181;SDS011;10250;50.756;6.172;2023-06-22T04:38:08;17.43;;;6.53;;
20181;SDS011;10250;50.756;6.172;2023-06-22T04:40:09;17.13;;;6.47;;
20181;SDS011;10250;50.756;6.172;2023-06-22T04:42:09;16.73;;;6.43;;
20181;SDS011;10250;50.756;6.172;2023-06-22T04:44:10;17.47;;;6.50;;
20181;SDS011;10250;50.756;6.172;2023-06-22T04:46:12;15.97;;;6.37;;
20181;SDS011;10250;50.756;6.172;2023-06-22T04:48:13;17.00;;;6.53;;
20181;SDS011;10250;50.756;6.172;2023-06-22T04:50:16;16.40;;;6.67;;
20181;SDS011;10250;50.756;6.172;2023-06-22T04:52:17;16.57;;;6.23;;
20181;SDS011;10250;50.756;6.172;2023-06-22T04:54:20;16.13;;;6.80;;
20181;SDS011;10250;50.756;6.172;2023-06-22T04:56:20;16.47;;;6.10;;
20181;SDS011;10250;50.756;6.172;2023-06-22T04:58:21;17.37;;;6.97;;
20181;SDS011;10250;50.756;6.172;2023-06-22T05:00:22;14.90;;;6.03;;
20181;SDS011;10250;50.756;6.172;2023-06-22T05:02:23;17.60;;;6.87;;
20181;SDS011;10250;50.756;6.172;2023-06-22T05:04:32;18.53;;;6.80;;
20181;SDS011;10250;50.756;6.172;2023-06-22T05:06:35;16.90;;;6.43;;
20181;SDS011;10250;50.756;6.172;2023-06-22T05:08:36;17.80;;;6.23;;
20181;SDS011;10250;50.756;6.172;2023-06-22T05:10:36;15.53;;;6.60;;
20181;SDS011;10250;50.756;6.172;2023-06-22T05:12:37;16.50;;;6.20;;
20181;SDS011;10250;50.756;6.172;2023-06-22T05:14:38;14.83;;;5.90;;
20181;SDS011;10250;50.756;6.172;2023-06-22T05:16:40;18.73;;;7.20;;
20181;SDS011;10250;50.756;6.172;2023-06-22T05:18:42;14.90;;;5.90;;
20181;SDS011;10250;50.756;6.172;2023-06-22T05:20:43;19.83;;;6.50;;
20181;SDS011;10250;50.756;6.172;2023-06-22T05:22:44;19.17;;;6.57;;
20181;SDS011;10250;50.756;6.172;2023-06-22T05:24:44;16.53;;;6.37;;
20181;SDS011;10250;50.756;6.172;2023-06-22T05:26:45;16.10;;;6.17;;
20181;SDS011;10250;50.756;6.172;2023-06-22T05:28:46;17.87;;;6.33;;
20181;SDS011;10250;50.756;6.172;2023-06-22T05:30:47;20.57;;;6.70;;
20181;SDS011;10250;50.756;6.172;2023-06-22T05:32:48;19.00;;;6.73;;
20181;SDS011;10250;50.756;6.172;2023-06-22T05:34:48;16.20;;;6.20;;
20181;SDS011;10250;50.756;6.172;2023-06-22T05:36:49;19.30;;;6.27;;
20181;SDS011;10250;50.756;6.172;2023-06-22T05:38:50;17.93;;;5.87;;
20181;SDS011;10250;50.756;6.172;2023-06-22T05:40:51;18.00;;;6.50;;
20181;SDS011;10250;50.756;6.172;2023-06-22T05:42:52;17.50;;;6.27;;
20181;SDS011;10250;50.756;6.172;2023-06-22T05:44:53;16.33;;;6.03;;
20181;SDS011;10250;50.756;6.172;2023-06-22T05:46:53;18.10;;;6.50;;
20181;SDS011;10250;50.756;6.172;2023-06-22T05:48:54;18.30;;;6.57;;
20181;SDS011;10250;50.756;6.172;2023-06-22T05:50:54;20.93;;;6.30;;
20181;SDS011;10250;50.756;6.172;2023-06-22T05:52:55;18.23;;;6.53;;
20181;SDS011;10250;50.756;6.172;2023-06-22T05:54:56;18.03;;;5.90;;
20181;SDS011;10250;50.756;6.172;2023-06-22T05:56:57;18.20;;;6.47;;
20181;SDS011;10250;50.756;6.172;2023-06-22T05:58:57;18.33;;;7.33;;
20181;SDS011;10250;50.756;6.172;2023-06-22T06:00:58;17.23;;;6.77;;
20181;SDS011;10250;50.756;6.172;2023-06-22T06:03:00;15.73;;;6.47;;
20181;SDS011;10250;50.756;6.172;2023-06-22T06:05:03;16.13;;;6.20;;
20181;SDS011;10250;50.756;6.172;2023-06-22T06:07:17;16.63;;;6.47;;
20181;SDS011;10250;50.756;6.172;2023-06-22T06:09:19;18.73;;;6.53;;
20181;SDS011;10250;50.756;6.172;2023-06-22T06:11:19;17.80;;;6.30;;
20181;SDS011;10250;50.756;6.172;2023-06-22T06:13:20;17.90;;;6.67;;
20181;SDS011;10250;50.756;6.172;2023-06-22T06:15:20;16.73;;;6.40;;
20181;SDS011;10250;50.756;6.172;2023-06-22T06:17:21;18.90;;;6.90;;
20181;SDS011;10250;50.756;6.172;2023-06-22T06:19:22;17.97;;;6.17;;
20181;SDS011;10250;50.756;6.172;2023-06-22T06:21:22;15.73;;;6.40;;
20181;SDS011;10250;50.756;6.172;2023-06-22T06:23:23;18.00;;;7.40;;
20181;SDS011;10250;50.756;6.172;2023-06-22T06:25:23;17.37;;;7.30;;
20181;SDS011;10250;50.756;6.172;2023-06-22T06:27:24;17.53;;;6.70;;
20181;SDS011;10250;50.756;6.172;2023-06-22T06:29:29;15.37;;;6.17;;
20181;SDS011;10250;50.756;6.172;2023-06-22T06:31:29;16.27;;;6.50;;
20181;SDS011;10250;50.756;6.172;2023-06-22T06:33:30;19.47;;;6.90;;
20181;SDS011;10250;50.756;6.172;2023-06-22T06:35:31;15.37;;;6.47;;
20181;SDS011;10250;50.756;6.172;2023-06-22T06:37:35;20.73;;;7.13;;
20181;SDS011;10250;50.756;6.172;2023-06-22T06:39:37;18.47;;;7.30;;
20181;SDS011;10250;50.756;6.172;2023-06-22T06:41:38;22.97;;;7.23;;
20181;SDS011;10250;50.756;6.172;2023-06-22T06:43:38;16.47;;;7.13;;
20181;SDS011;10250;50.756;6.172;2023-06-22T06:45:39;18.97;;;7.33;;
20181;SDS011;10250;50.756;6.172;2023-06-22T06:47:39;16.17;;;6.63;;
20181;SDS011;10250;50.756;6.172;2023-06-22T06:49:40;19.30;;;7.43;;
20181;SDS011;10250;50.756;6.172;2023-06-22T06:51:40;19.17;;;7.40;;
20181;SDS011;10250;50.756;6.172;2023-06-22T06:53:41;20.90;;;7.47;;
20181;SDS011;10250;50.756;6.172;2023-06-22T06:55:42;20.17;;;7.10;;
20181;SDS011;10250;50.756;6.172;2023-06-22T06:57:45;16.23;;;6.50;;
20181;SDS011;10250;50.756;6.172;2023-06-22T06:59:48;18.53;;;6.83;;
20181;SDS011;10250;50.756;6.172;2023-06-22T07:01:49;20.93;;;8.30;;
20181;SDS011;10250;50.756;6.172;2023-06-22T07:03:50;19.40;;;7.17;;
20181;SDS011;10250;50.756;6.172;2023-06-22T07:05:51;17.60;;;7.27;;
20181;SDS011;10250;50.756;6.172;2023-06-22T07:07:51;20.17;;;6.63;;
20181;SDS011;10250;50.756;6.172;2023-06-22T07:09:53;17.10;;;6.97;;
20181;SDS011;10250;50.756;6.172;2023-06-22T07:11:54;21.50;;;7.20;;
20181;SDS011;10250;50.756;6.172;2023-06-22T07:13:54;17.27;;;7.37;;
20181;SDS011;10250;50.756;6.172;2023-06-22T07:15:55;19.27;;;7.37;;
20181;SDS011;10250;50.756;6.172;2023-06-22T07:17:55;17.63;;;7.00;;
20181;SDS011;10250;50.756;6.172;2023-06-22T07:19:56;15.80;;;6.60;;
20181;SDS011;10250;50.756;6.172;2023-06-22T07:21:57;20.10;;;7.37;;
20181;SDS011;10250;50.756;6.172;2023-06-22T07:23:57;18.03;;;6.97;;
20181;SDS011;10250;50.756;6.172;2023-06-22T07:25:58;18.67;;;7.60;;
20181;SDS011;10250;50.756;6.172;2023-06-22T07:28:05;16.53;;;7.07;;
20181;SDS011;10250;50.756;6.172;2023-06-22T07:30:06;18.63;;;6.90;;
20181;SDS011;10250;50.756;6.172;2023-06-22T07:32:07;20.40;;;7.20;;
20181;SDS011;10250;50.756;6.172;2023-06-22T07:34:08;18.90;;;7.30;;
20181;SDS011;10250;50.756;6.172;2023-06-22T07:36:09;19.00;;;7.23;;
20181;SDS011;10250;50.756;6.172;2023-06-22T07:38:09;20.20;;;7.23;;
20181;SDS011;10250;50.756;6.172;2023-06-22T07:40:10;18.73;;;7.83;;
20181;SDS011;10250;50.756;6.172;2023-06-22T07:42:11;18.90;;;7.37;;
20181;SDS011;10250;50.756;6.172;2023-06-22T07:44:12;17.40;;;7.53;;
20181;SDS011;10250;50.756;6.172;2023-06-22T07:46:13;20.13;;;7.80;;
20181;SDS011;10250;50.756;6.172;2023-06-22T07:48:16;17.23;;;7.23;;
20181;SDS011;10250;50.756;6.172;2023-06-22T07:50:16;16.77;;;7.10;;
20181;SDS011;10250;50.756;6.172;2023-06-22T07:52:17;21.47;;;8.50;;
20181;SDS011;10250;50.756;6.172;2023-06-22T07:54:18;21.93;;;8.23;;
20181;SDS011;10250;50.756;6.172;2023-06-22T07:56:19;18.43;;;7.60;;
20181;SDS011;10250;50.756;6.172;2023-06-22T07:58:20;19.73;;;7.90;;
20181;SDS011;10250;50.756;6.172;2023-06-22T08:00:20;19.07;;;7.60;;
20181;SDS011;10250;50.756;6.172;2023-06-22T08:02:21;17.50;;;7.43;;
20181;SDS011;10250;50.756;6.172;2023-06-22T08:04:22;17.37;;;7.53;;
20181;SDS011;10250;50.756;6.172;2023-06-22T08:06:23;19.23;;;8.30;;
20181;SDS011;10250;50.756;6.172;2023-06-22T08:08:23;18.90;;;8.13;;
20181;SDS011;10250;50.756;6.172;2023-06-22T08:10:24;18.53;;;7.80;;
20181;SDS011;10250;50.756;6.172;2023-06-22T08:12:25;19.37;;;8.67;;
20181;SDS011;10250;50.756;6.172;2023-06-22T08:14:26;18.27;;;7.73;;
20181;SDS011;10250;50.756;6.172;2023-06-22T08:16:30;20.33;;;8.47;;
20181;SDS011;10250;50.756;6.172;2023-06-22T08:18:31;18.07;;;8.70;;
20181;SDS011;10250;50.756;6.172;2023-06-22T08:20:32;19.77;;;8.20;;
20181;SDS011;10250;50.756;6.172;2023-06-22T08:22:33;19.07;;;7.97;;
20181;SDS011;10250;50.756;6.172;2023-06-22T08:24:35;18.17;;;8.23;;
20181;SDS011;10250;50.756;6.172;2023-06-22T08:26:38;19.90;;;8.60;;
20181;SDS011;10250;50.756;6.172;2023-06-22T08:28:39;18.97;;;8.03;;
20181;SDS011;10250;50.756;6.172;2023-06-22T08:30:39;16.63;;;8.07;;
20181;SDS011;10250;50.756;6.172;2023-06-22T08:32:40;18.67;;;7.83;;
20181;SDS011;10250;50.756;6.172;2023-06-22T08:34:41;18.70;;;7.83;;
20181;SDS011;10250;50.756;6.172;2023-06-22T08:36:42;18.83;;;8.50;;
20181;SDS011;10250;50.756;6.172;2023-06-22T08:38:45;18.33;;;8.30;;
20181;SDS011;10250;50.756;6.172;2023-06-22T08:40:50;19.27;;;8.20;;
20181;SDS011;10250;50.756;6.172;2023-06-22T08:42:50;21.47;;;7.97;;
20181;SDS011;10250;50.756;6.172;2023-06-22T08:44:51;21.87;;;8.20;;
20181;SDS011;10250;50.756;6.172;2023-06-22T08:46:52;25.07;;;9.03;;
20181;SDS011;10250;50.756;6.172;2023-06-22T08:48:53;19.87;;;8.40;;
20181;SDS011;10250;50.756;6.172;2023-06-22T08:50:59;19.00;;;8.57;;
20181;SDS011;10250;50.756;6.172;2023-06-22T08:53:09;18.93;;;8.10;;
20181;SDS011;10250;50.756;6.172;2023-06-22T08:55:10;18.13;;;7.87;;
20181;SDS011;10250;50.756;6.172;2023-06-22T08:57:11;20.23;;;9.07;;
20181;SDS011;10250;50.756;6.172;2023-06-22T08:59:11;18.53;;;8.40;;
20181;SDS011;10250;50.756;6.172;2023-06-22T09:01:12;19.90;;;8.40;;
20181;SDS011;10250;50.756;6.172;2023-06-22T09:03:15;19.97;;;8.00;;
20181;SDS011;10250;50.756;6.172;2023-06-22T09:05:15;19.70;;;9.40;;
20181;SDS011;10250;50.756;6.172;2023-06-22T09:07:16;18.80;;;8.90;;
20181;SDS011;10250;50.756;6.172;2023-06-22T09:09:22;21.23;;;9.07;;
20181;SDS011;10250;50.756;6.172;2023-06-22T09:11:22;20.27;;;8.77;;
20181;SDS011;10250;50.756;6.172;2023-06-22T09:13:23;20.20;;;8.63;;
20181;SDS011;10250;50.756;6.172;2023-06-22T09:15:24;18.27;;;9.10;;
20181;SDS011;10250;50.756;6.172;2023-06-22T09:17:25;20.60;;;10.27;;
20181;SDS011;10250;50.756;6.172;2023-06-22T09:19:26;19.87;;;8.77;;
20181;SDS011;10250;50.756;6.172;2023-06-22T09:23:39;18.67;;;8.50;;
20181;SDS011;10250;50.756;6.172;2023-06-22T09:25:39;19.40;;;8.83;;
20181;SDS011;10250;50.756;6.172;2023-06-22T09:27:41;18.07;;;8.30;;
20181;SDS011;10250;50.756;6.172;2023-06-22T09:29:41;20.17;;;8.87;;
20181;SDS011;10250;50.756;6.172;2023-06-22T09:31:42;20.97;;;8.37;;
20181;SDS011;10250;50.756;6.172;2023-06-22T09:33:42;19.30;;;8.33;;
20181;SDS011;10250;50.756;6.172;2023-06-22T09:35:44;20.83;;;9.33;;
20181;SDS011;10250;50.756;6.172;2023-06-22T09:37:44;19.50;;;8.20;;
20181;SDS011;10250;50.756;6.172;2023-06-22T09:39:45;19.33;;;7.47;;
20181;SDS011;10250;50.756;6.172;2023-06-22T09:41:46;21.20;;;8.43;;
20181;SDS011;10250;50.756;6.172;2023-06-22T09:43:46;17.97;;;8.10;;
20181;SDS011;10250;50.756;6.172;2023-06-22T09:45:48;18.87;;;7.83;;
20181;SDS011;10250;50.756;6.172;2023-06-22T09:47:48;18.13;;;7.87;;
20181;SDS011;10250;50.756;6.172;2023-06-22T09:49:49;19.50;;;8.67;;
20181;SDS011;10250;50.756;6.172;2023-06-22T09:51:50;19.23;;;8.80;;
20181;SDS011;10250;50.756;6.172;2023-06-22T09:53:51;20.07;;;9.03;;
20181;SDS011;10250;50.756;6.172;2023-06-22T09:55:53;21.10;;;9.20;;
20181;SDS011;10250;50.756;6.172;2023-06-22T09:57:54;21.33;;;9.83;;
20181;SDS011;10250;50.756;6.172;2023-06-22T09:59:55;20.40;;;10.27;;
20181;SDS011;10250;50.756;6.172;2023-06-22T10:01:56;22.10;;;10.50;;
20181;SDS011;10250;50.756;6.172;2023-06-22T10:03:56;23.90;;;10.53;;
20181;SDS011;10250;50.756;6.172;2023-06-22T10:05:58;21.73;;;10.67;;
20181;SDS011;10250;50.756;6.172;2023-06-22T10:07:59;23.57;;;11.07;;
20181;SDS011;10250;50.756;6.172;2023-06-22T10:09:59;22.00;;;11.37;;
20181;SDS011;10250;50.756;6.172;2023-06-22T10:12:00;22.63;;;10.67;;
20181;SDS011;10250;50.756;6.172;2023-06-22T10:14:01;23.17;;;11.60;;
20181;SDS011;10250;50.756;6.172;2023-06-22T10:16:04;22.90;;;11.27;;
20181;SDS011;10250;50.756;6.172;2023-06-22T10:18:05;21.93;;;11.73;;
20181;SDS011;10250;50.756;6.172;2023-06-22T10:20:08;21.53;;;10.80;;
20181;SDS011;10250;50.756;6.172;2023-06-22T10:22:12;23.23;;;11.83;;
20181;SDS011;10250;50.756;6.172;2023-06-22T10:24:13;24.63;;;12.60;;
20181;SDS011;10250;50.756;6.172;2023-06-22T10:26:13;23.87;;;12.10;;
20181;SDS011;10250;50.756;6.172;2023-06-22T10:28:14;23.83;;;12.57;;
20181;SDS011;10250;50.756;6.172;2023-06-22T10:30:15;25.07;;;12.00;;
20181;SDS011;10250;50.756;6.172;2023-06-22T10:32:16;24.40;;;12.80;;
20181;SDS011;10250;50.756;6.172;2023-06-22T10:34:16;22.30;;;12.80;;
20181;SDS011;10250;50.756;6.172;2023-06-22T10:36:17;24.73;;;12.23;;
20181;SDS011;10250;50.756;6.172;2023-06-22T10:38:18;24.93;;;12.47;;
20181;SDS011;10250;50.756;6.172;2023-06-22T10:40:18;26.20;;;12.43;;
20181;SDS011;10250;50.756;6.172;2023-06-22T10:42:19;24.67;;;13.87;;
20181;SDS011;10250;50.756;6.172;2023-06-22T10:44:19;24.27;;;13.07;;
20181;SDS011;10250;50.756;6.172;2023-06-22T10:46:20;23.90;;;13.17;;
20181;SDS011;10250;50.756;6.172;2023-06-22T10:48:21;27.90;;;13.97;;
20181;SDS011;10250;50.756;6.172;2023-06-22T10:50:22;26.27;;;13.83;;
20181;SDS011;10250;50.756;6.172;2023-06-22T10:52:24;27.27;;;14.33;;
20181;SDS011;10250;50.756;6.172;2023-06-22T10:54:24;27.63;;;14.93;;
20181;SDS011;10250;50.756;6.172;2023-06-22T10:56:25;28.93;;;16.07;;
20181;SDS011;10250;50.756;6.172;2023-06-22T10:58:26;30.37;;;15.97;;
20181;SDS011;10250;50.756;6.172;2023-06-22T11:00:26;28.70;;;15.93;;
20181;SDS011;10250;50.756;6.172;2023-06-22T11:02:27;28.53;;;16.93;;
20181;SDS011;10250;50.756;6.172;2023-06-22T11:04:28;27.83;;;16.63;;
20181;SDS011;10250;50.756;6.172;2023-06-22T11:06:29;27.27;;;16.60;;
20181;SDS011;10250;50.756;6.172;2023-06-22T11:08:30;31.23;;;17.97;;
20181;SDS011;10250;50.756;6.172;2023-06-22T11:10:32;31.03;;;17.93;;
20181;SDS011;10250;50.756;6.172;2023-06-22T11:12:39;31.90;;;18.50;;
20181;SDS011;10250;50.756;6.172;2023-06-22T11:14:42;31.63;;;18.77;;
20181;SDS011;10250;50.756;6.172;2023-06-22T11:16:43;34.80;;;19.37;;
20181;SDS011;10250;50.756;6.172;2023-06-22T11:18:43;33.67;;;18.87;;
20181;SDS011;10250;50.756;6.172;2023-06-22T11:20:44;31.80;;;17.90;;
20181;SDS011;10250;50.756;6.172;2023-06-22T11:22:45;29.97;;;17.33;;
20181;SDS011;10250;50.756;6.172;2023-06-22T11:24:45;29.53;;;17.20;;
20181;SDS011;10250;50.756;6.172;2023-06-22T11:26:46;30.83;;;16.40;;
20181;SDS011;10250;50.756;6.172;2023-06-22T11:28:46;27.43;;;15.83;;
20181;SDS011;10250;50.756;6.172;2023-06-22T11:30:47;29.77;;;16.10;;
20181;SDS011;10250;50.756;6.172;2023-06-22T11:32:48;26.93;;;15.53;;
20181;SDS011;10250;50.756;6.172;2023-06-22T11:34:48;26.13;;;15.23;;
20181;SDS011;10250;50.756;6.172;2023-06-22T11:36:49;25.17;;;14.50;;
20181;SDS011;10250;50.756;6.172;2023-06-22T11:38:49;25.00;;;14.67;;
20181;SDS011;10250;50.756;6.172;2023-06-22T11:40:51;26.90;;;14.83;;
20181;SDS011;10250;50.756;6.172;2023-06-22T11:42:52;28.20;;;14.47;;
20181;SDS011;10250;50.756;6.172;2023-06-22T11:44:52;27.27;;;14.43;;
20181;SDS011;10250;50.756;6.172;2023-06-22T11:46:53;25.20;;;15.40;;
20181;SDS011;10250;50.756;6.172;2023-06-22T11:48:53;23.87;;;14.03;;
20181;SDS011;10250;50.756;6.172;2023-06-22T11:50:54;27.40;;;14.63;;
20181;SDS011;10250;50.756;6.172;2023-06-22T11:52:55;25.80;;;14.93;;
20181;SDS011;10250;50.756;6.172;2023-06-22T11:54:55;25.17;;;14.40;;
20181;SDS011;10250;50.756;6.172;2023-06-22T11:56:56;28.10;;;15.40;;
20181;SDS011;10250;50.756;6.172;2023-06-22T11:58:57;27.20;;;14.40;;
20181;SDS011;10250;50.756;6.172;2023-06-22T12:00:58;28.23;;;14.47;;
20181;SDS011;10250;50.756;6.172;2023-06-22T12:02:58;25.17;;;12.77;;
20181;SDS011;10250;50.756;6.172;2023-06-22T12:04:59;26.00;;;13.90;;
20181;SDS011;10250;50.756;6.172;2023-06-22T12:07:00;26.93;;;12.40;;